4°C Temp
3°C Point de rosée
93% Humidité
Température
0 KM/H
MPH
KTS
Calme
North

Vitesse du Vent
Clair
Préssion 1021.92 (hPa) - 30.18 (in)
Visibilité 2.2 (mi) - 3.5 (km)

Conditions Actuelles
LFBG
Location Cognac-Châteaubernard (BA 709) Air Base 23(km)
Metar :LFBG 200030Z AUTO 00000KT 3500 0500 R23/1100U BCFG NSC 04/03 Q1022
Dernière mise à jour: 20-02-2019 07:03

Aéroport
  Métar Aviation Données API fournies par https://www.checkwx.com/ PHP scripts by weather34.com ©2019